sensor_id;sensor_type;location;lat;lon;timestamp;P1;durP1;ratioP1;P2;durP2;ratioP2
75990;SDS011;64673;52.276;10.560;2023-03-01T00:01:17;11.77;;;5.05;;
75990;SDS011;64673;52.276;10.560;2023-03-01T00:03:44;12.35;;;5.15;;
75990;SDS011;64673;52.276;10.560;2023-03-01T00:06:10;14.65;;;5.40;;
75990;SDS011;64673;52.276;10.560;2023-03-01T00:08:35;11.43;;;5.13;;
75990;SDS011;64673;52.276;10.560;2023-03-01T00:11:05;10.93;;;5.10;;
75990;SDS011;64673;52.276;10.560;2023-03-01T00:13:31;13.10;;;5.00;;
75990;SDS011;64673;52.276;10.560;2023-03-01T00:15:56;9.73;;;4.63;;
75990;SDS011;64673;52.276;10.560;2023-03-01T00:18:22;11.48;;;4.70;;
75990;SDS011;64673;52.276;10.560;2023-03-01T00:20:51;10.57;;;4.78;;
75990;SDS011;64673;52.276;10.560;2023-03-01T00:23:18;11.88;;;5.18;;
75990;SDS011;64673;52.276;10.560;2023-03-01T00:25:44;12.27;;;5.20;;
75990;SDS011;64673;52.276;10.560;2023-03-01T00:28:09;10.27;;;4.95;;
75990;SDS011;64673;52.276;10.560;2023-03-01T00:30:34;12.18;;;5.03;;
75990;SDS011;64673;52.276;10.560;2023-03-01T00:33:00;9.95;;;4.70;;
75990;SDS011;64673;52.276;10.560;2023-03-01T00:35:25;12.52;;;4.93;;
75990;SDS011;64673;52.276;10.560;2023-03-01T00:37:50;10.18;;;4.65;;
75990;SDS011;64673;52.276;10.560;2023-03-01T00:40:26;9.70;;;4.47;;
75990;SDS011;64673;52.276;10.560;2023-03-01T00:42:52;11.60;;;4.60;;
75990;SDS011;64673;52.276;10.560;2023-03-01T00:45:18;9.43;;;4.30;;
75990;SDS011;64673;52.276;10.560;2023-03-01T00:47:43;9.70;;;4.97;;
75990;SDS011;64673;52.276;10.560;2023-03-01T00:50:09;9.70;;;4.50;;
75990;SDS011;64673;52.276;10.560;2023-03-01T00:52:35;9.52;;;4.60;;
75990;SDS011;64673;52.276;10.560;2023-03-01T00:55:01;10.18;;;4.93;;
75990;SDS011;64673;52.276;10.560;2023-03-01T00:57:26;9.82;;;4.90;;
75990;SDS011;64673;52.276;10.560;2023-03-01T00:59:51;10.93;;;4.88;;
75990;SDS011;64673;52.276;10.560;2023-03-01T01:02:17;9.95;;;4.13;;
75990;SDS011;64673;52.276;10.560;2023-03-01T01:04:44;9.73;;;4.40;;
75990;SDS011;64673;52.276;10.560;2023-03-01T01:07:10;10.38;;;4.43;;
75990;SDS011;64673;52.276;10.560;2023-03-01T01:09:35;9.35;;;4.20;;
75990;SDS011;64673;52.276;10.560;2023-03-01T01:12:01;10.93;;;4.63;;
75990;SDS011;64673;52.276;10.560;2023-03-01T01:14:27;10.40;;;5.25;;
75990;SDS011;64673;52.276;10.560;2023-03-01T01:16:52;10.15;;;4.60;;
75990;SDS011;64673;52.276;10.560;2023-03-01T01:19:18;10.02;;;4.57;;
75990;SDS011;64673;52.276;10.560;2023-03-01T01:21:43;11.48;;;4.55;;
75990;SDS011;64673;52.276;10.560;2023-03-01T01:24:10;10.45;;;5.22;;
75990;SDS011;64673;52.276;10.560;2023-03-01T01:26:36;8.30;;;4.13;;
75990;SDS011;64673;52.276;10.560;2023-03-01T01:29:02;10.18;;;4.40;;
75990;SDS011;64673;52.276;10.560;2023-03-01T01:31:29;9.40;;;4.78;;
75990;SDS011;64673;52.276;10.560;2023-03-01T01:33:55;11.02;;;5.18;;
75990;SDS011;64673;52.276;10.560;2023-03-01T01:36:22;9.18;;;4.75;;
75990;SDS011;64673;52.276;10.560;2023-03-01T01:38:48;10.85;;;5.32;;
75990;SDS011;64673;52.276;10.560;2023-03-01T01:41:14;9.68;;;4.32;;
75990;SDS011;64673;52.276;10.560;2023-03-01T01:43:41;10.75;;;4.45;;
75990;SDS011;64673;52.276;10.560;2023-03-01T01:46:30;16.33;;;5.88;;
75990;SDS011;64673;52.276;10.560;2023-03-01T01:49:10;10.35;;;4.45;;
75990;SDS011;64673;52.276;10.560;2023-03-01T01:51:48;9.95;;;4.25;;
75990;SDS011;64673;52.276;10.560;2023-03-01T01:54:18;11.07;;;4.28;;
75990;SDS011;64673;52.276;10.560;2023-03-01T01:56:52;10.40;;;4.22;;
75990;SDS011;64673;52.276;10.560;2023-03-01T01:59:21;10.35;;;4.07;;
75990;SDS011;64673;52.276;10.560;2023-03-01T02:01:51;11.32;;;4.70;;
75990;SDS011;64673;52.276;10.560;2023-03-01T02:04:17;9.13;;;4.60;;
75990;SDS011;64673;52.276;10.560;2023-03-01T02:06:54;11.00;;;4.70;;
75990;SDS011;64673;52.276;10.560;2023-03-01T02:09:46;9.85;;;4.15;;
75990;SDS011;64673;52.276;10.560;2023-03-01T02:12:15;11.05;;;4.35;;
75990;SDS011;64673;52.276;10.560;2023-03-01T02:14:43;12.48;;;4.53;;
75990;SDS011;64673;52.276;10.560;2023-03-01T02:17:09;11.00;;;5.28;;
75990;SDS011;64673;52.276;10.560;2023-03-01T02:22:23;11.05;;;4.00;;
75990;SDS011;64673;52.276;10.560;2023-03-01T02:24:59;11.57;;;4.47;;
75990;SDS011;64673;52.276;10.560;2023-03-01T02:27:44;10.30;;;4.20;;
75990;SDS011;64673;52.276;10.560;2023-03-01T02:30:18;8.68;;;4.15;;
75990;SDS011;64673;52.276;10.560;2023-03-01T02:32:45;11.80;;;4.50;;
75990;SDS011;64673;52.276;10.560;2023-03-01T02:35:12;8.70;;;4.10;;
75990;SDS011;64673;52.276;10.560;2023-03-01T02:37:40;11.02;;;4.65;;
75990;SDS011;64673;52.276;10.560;2023-03-01T02:40:08;11.23;;;4.43;;
75990;SDS011;64673;52.276;10.560;2023-03-01T02:42:55;9.88;;;4.25;;
75990;SDS011;64673;52.276;10.560;2023-03-01T02:45:22;8.18;;;3.80;;
75990;SDS011;64673;52.276;10.560;2023-03-01T02:47:48;14.73;;;5.30;;
75990;SDS011;64673;52.276;10.560;2023-03-01T02:53:11;7.72;;;4.05;;
75990;SDS011;64673;52.276;10.560;2023-03-01T02:55:52;10.30;;;3.88;;
75990;SDS011;64673;52.276;10.560;2023-03-01T02:58:18;9.05;;;4.57;;
75990;SDS011;64673;52.276;10.560;2023-03-01T03:00:44;9.77;;;4.07;;
75990;SDS011;64673;52.276;10.560;2023-03-01T03:03:15;10.30;;;5.03;;
75990;SDS011;64673;52.276;10.560;2023-03-01T03:05:42;9.45;;;4.32;;
75990;SDS011;64673;52.276;10.560;2023-03-01T03:08:08;9.73;;;4.35;;
75990;SDS011;64673;52.276;10.560;2023-03-01T03:10:35;9.85;;;4.05;;
75990;SDS011;64673;52.276;10.560;2023-03-01T03:13:04;11.70;;;4.40;;
75990;SDS011;64673;52.276;10.560;2023-03-01T03:15:32;7.95;;;3.72;;
75990;SDS011;64673;52.276;10.560;2023-03-01T03:18:02;9.55;;;3.72;;
75990;SDS011;64673;52.276;10.560;2023-03-01T03:20:29;8.77;;;4.05;;
75990;SDS011;64673;52.276;10.560;2023-03-01T03:22:56;9.25;;;4.47;;
75990;SDS011;64673;52.276;10.560;2023-03-01T03:25:23;11.13;;;4.25;;
75990;SDS011;64673;52.276;10.560;2023-03-01T03:27:51;8.82;;;4.25;;
75990;SDS011;64673;52.276;10.560;2023-03-01T03:30:22;12.00;;;4.60;;
75990;SDS011;64673;52.276;10.560;2023-03-01T03:32:48;11.90;;;4.50;;
75990;SDS011;64673;52.276;10.560;2023-03-01T03:35:21;10.68;;;4.38;;
75990;SDS011;64673;52.276;10.560;2023-03-01T03:37:51;8.18;;;3.63;;
75990;SDS011;64673;52.276;10.560;2023-03-01T03:40:37;11.00;;;4.47;;
75990;SDS011;64673;52.276;10.560;2023-03-01T03:43:05;11.63;;;4.47;;
75990;SDS011;64673;52.276;10.560;2023-03-01T03:45:41;10.77;;;4.20;;
75990;SDS011;64673;52.276;10.560;2023-03-01T03:48:09;7.75;;;3.72;;
75990;SDS011;64673;52.276;10.560;2023-03-01T03:50:35;9.90;;;4.35;;
75990;SDS011;64673;52.276;10.560;2023-03-01T03:53:03;8.55;;;4.15;;
75990;SDS011;64673;52.276;10.560;2023-03-01T03:55:36;9.43;;;4.38;;
75990;SDS011;64673;52.276;10.560;2023-03-01T03:58:04;11.15;;;4.20;;
75990;SDS011;64673;52.276;10.560;2023-03-01T04:00:32;9.02;;;3.65;;
75990;SDS011;64673;52.276;10.560;2023-03-01T04:02:59;8.73;;;4.00;;
75990;SDS011;64673;52.276;10.560;2023-03-01T04:05:25;8.73;;;3.85;;
75990;SDS011;64673;52.276;10.560;2023-03-01T04:07:51;10.80;;;3.83;;
75990;SDS011;64673;52.276;10.560;2023-03-01T04:10:26;7.68;;;3.97;;
75990;SDS011;64673;52.276;10.560;2023-03-01T04:12:55;12.15;;;4.63;;
75990;SDS011;64673;52.276;10.560;2023-03-01T04:15:21;9.27;;;4.05;;
75990;SDS011;64673;52.276;10.560;2023-03-01T04:17:49;6.93;;;4.30;;
75990;SDS011;64673;52.276;10.560;2023-03-01T04:20:20;8.23;;;4.20;;
75990;SDS011;64673;52.276;10.560;2023-03-01T04:25:24;6.63;;;3.75;;
75990;SDS011;64673;52.276;10.560;2023-03-01T04:27:50;9.70;;;3.58;;
75990;SDS011;64673;52.276;10.560;2023-03-01T04:30:15;8.02;;;4.03;;
75990;SDS011;64673;52.276;10.560;2023-03-01T04:32:41;6.03;;;3.50;;
75990;SDS011;64673;52.276;10.560;2023-03-01T04:35:06;10.52;;;3.90;;
75990;SDS011;64673;52.276;10.560;2023-03-01T04:37:32;8.25;;;3.15;;
75990;SDS011;64673;52.276;10.560;2023-03-01T04:39:58;7.35;;;3.67;;
75990;SDS011;64673;52.276;10.560;2023-03-01T04:42:23;8.68;;;3.67;;
75990;SDS011;64673;52.276;10.560;2023-03-01T04:44:48;9.05;;;3.95;;
75990;SDS011;64673;52.276;10.560;2023-03-01T04:47:16;8.07;;;3.05;;
75990;SDS011;64673;52.276;10.560;2023-03-01T04:49:41;10.23;;;4.28;;
75990;SDS011;64673;52.276;10.560;2023-03-01T04:52:07;8.15;;;4.20;;
75990;SDS011;64673;52.276;10.560;2023-03-01T04:54:33;8.88;;;4.53;;
75990;SDS011;64673;52.276;10.560;2023-03-01T04:57:00;7.35;;;3.55;;
75990;SDS011;64673;52.276;10.560;2023-03-01T04:59:26;7.03;;;3.70;;
75990;SDS011;64673;52.276;10.560;2023-03-01T05:01:52;8.65;;;3.75;;
75990;SDS011;64673;52.276;10.560;2023-03-01T05:04:22;9.65;;;4.13;;
75990;SDS011;64673;52.276;10.560;2023-03-01T05:06:48;9.15;;;4.00;;
75990;SDS011;64673;52.276;10.560;2023-03-01T05:09:13;12.23;;;4.07;;
75990;SDS011;64673;52.276;10.560;2023-03-01T05:11:39;6.63;;;3.53;;
75990;SDS011;64673;52.276;10.560;2023-03-01T05:14:04;8.65;;;3.90;;
75990;SDS011;64673;52.276;10.560;2023-03-01T05:16:31;8.43;;;4.50;;
75990;SDS011;64673;52.276;10.560;2023-03-01T05:18:58;9.25;;;3.67;;
75990;SDS011;64673;52.276;10.560;2023-03-01T05:21:24;8.63;;;3.63;;
75990;SDS011;64673;52.276;10.560;2023-03-01T05:23:50;6.00;;;3.22;;
75990;SDS011;64673;52.276;10.560;2023-03-01T05:26:16;6.95;;;3.47;;
75990;SDS011;64673;52.276;10.560;2023-03-01T05:28:44;11.40;;;4.03;;
75990;SDS011;64673;52.276;10.560;2023-03-01T05:31:10;7.30;;;3.35;;
75990;SDS011;64673;52.276;10.560;2023-03-01T05:33:36;7.10;;;3.55;;
75990;SDS011;64673;52.276;10.560;2023-03-01T05:36:03;7.63;;;3.47;;
75990;SDS011;64673;52.276;10.560;2023-03-01T05:38:28;8.30;;;3.83;;
75990;SDS011;64673;52.276;10.560;2023-03-01T05:40:54;8.30;;;3.55;;
75990;SDS011;64673;52.276;10.560;2023-03-01T05:43:19;8.43;;;3.30;;
75990;SDS011;64673;52.276;10.560;2023-03-01T05:45:45;8.98;;;3.78;;
75990;SDS011;64673;52.276;10.560;2023-03-01T05:48:11;8.60;;;3.40;;
75990;SDS011;64673;52.276;10.560;2023-03-01T05:50:39;9.30;;;4.82;;
75990;SDS011;64673;52.276;10.560;2023-03-01T05:53:06;7.85;;;2.92;;
75990;SDS011;64673;52.276;10.560;2023-03-01T05:55:37;10.43;;;4.78;;
75990;SDS011;64673;52.276;10.560;2023-03-01T05:58:04;10.02;;;3.78;;
75990;SDS011;64673;52.276;10.560;2023-03-01T06:00:32;9.30;;;3.60;;
75990;SDS011;64673;52.276;10.560;2023-03-01T06:02:58;9.10;;;3.70;;
75990;SDS011;64673;52.276;10.560;2023-03-01T06:05:25;7.95;;;3.47;;
75990;SDS011;64673;52.276;10.560;2023-03-01T06:07:51;8.65;;;4.07;;
75990;SDS011;64673;52.276;10.560;2023-03-01T06:10:18;11.77;;;4.13;;
75990;SDS011;64673;52.276;10.560;2023-03-01T06:12:44;11.20;;;4.22;;
75990;SDS011;64673;52.276;10.560;2023-03-01T06:15:11;8.38;;;4.15;;
75990;SDS011;64673;52.276;10.560;2023-03-01T06:17:38;7.18;;;3.88;;
75990;SDS011;64673;52.276;10.560;2023-03-01T06:20:06;10.35;;;4.55;;
75990;SDS011;64673;52.276;10.560;2023-03-01T06:22:37;8.23;;;3.85;;
75990;SDS011;64673;52.276;10.560;2023-03-01T06:25:03;7.63;;;3.92;;
75990;SDS011;64673;52.276;10.560;2023-03-01T06:27:28;13.38;;;4.10;;
75990;SDS011;64673;52.276;10.560;2023-03-01T06:29:54;9.10;;;3.47;;
75990;SDS011;64673;52.276;10.560;2023-03-01T06:32:19;6.35;;;3.13;;
75990;SDS011;64673;52.276;10.560;2023-03-01T06:34:44;10.07;;;3.92;;
75990;SDS011;64673;52.276;10.560;2023-03-01T06:37:10;7.85;;;4.22;;
75990;SDS011;64673;52.276;10.560;2023-03-01T06:39:36;9.55;;;3.80;;
75990;SDS011;64673;52.276;10.560;2023-03-01T06:42:01;10.75;;;3.63;;
75990;SDS011;64673;52.276;10.560;2023-03-01T06:44:27;9.70;;;4.15;;
75990;SDS011;64673;52.276;10.560;2023-03-01T06:46:52;8.52;;;4.03;;
75990;SDS011;64673;52.276;10.560;2023-03-01T06:49:17;7.38;;;3.33;;
75990;SDS011;64673;52.276;10.560;2023-03-01T06:51:43;10.40;;;4.20;;
75990;SDS011;64673;52.276;10.560;2023-03-01T06:54:09;7.22;;;3.65;;
75990;SDS011;64673;52.276;10.560;2023-03-01T06:56:35;6.53;;;3.38;;
75990;SDS011;64673;52.276;10.560;2023-03-01T06:59:00;6.75;;;3.40;;
75990;SDS011;64673;52.276;10.560;2023-03-01T07:01:27;9.20;;;3.85;;
75990;SDS011;64673;52.276;10.560;2023-03-01T07:03:52;8.30;;;4.00;;
75990;SDS011;64673;52.276;10.560;2023-03-01T07:06:18;6.72;;;3.60;;
75990;SDS011;64673;52.276;10.560;2023-03-01T07:08:43;11.30;;;4.00;;
75990;SDS011;64673;52.276;10.560;2023-03-01T07:11:09;12.23;;;4.85;;
75990;SDS011;64673;52.276;10.560;2023-03-01T07:13:34;12.25;;;4.53;;
75990;SDS011;64673;52.276;10.560;2023-03-01T07:15:59;8.85;;;3.95;;
75990;SDS011;64673;52.276;10.560;2023-03-01T07:18:25;8.70;;;4.28;;
75990;SDS011;64673;52.276;10.560;2023-03-01T07:20:50;8.73;;;4.25;;
75990;SDS011;64673;52.276;10.560;2023-03-01T07:23:16;7.55;;;3.75;;
75990;SDS011;64673;52.276;10.560;2023-03-01T07:25:41;9.93;;;4.57;;
75990;SDS011;64673;52.276;10.560;2023-03-01T07:28:06;10.57;;;4.45;;
75990;SDS011;64673;52.276;10.560;2023-03-01T07:30:32;12.68;;;5.07;;
75990;SDS011;64673;52.276;10.560;2023-03-01T07:32:58;10.07;;;4.60;;
75990;SDS011;64673;52.276;10.560;2023-03-01T07:35:26;10.27;;;4.68;;
75990;SDS011;64673;52.276;10.560;2023-03-01T07:37:52;12.60;;;5.28;;
75990;SDS011;64673;52.276;10.560;2023-03-01T07:40:18;13.13;;;5.68;;
75990;SDS011;64673;52.276;10.560;2023-03-01T07:42:44;12.65;;;5.55;;
75990;SDS011;64673;52.276;10.560;2023-03-01T07:45:10;12.70;;;5.30;;
75990;SDS011;64673;52.276;10.560;2023-03-01T07:47:36;10.38;;;4.90;;
75990;SDS011;64673;52.276;10.560;2023-03-01T07:50:01;14.73;;;5.60;;
75990;SDS011;64673;52.276;10.560;2023-03-01T07:52:28;13.68;;;4.80;;
75990;SDS011;64673;52.276;10.560;2023-03-01T07:54:55;9.30;;;4.25;;
75990;SDS011;64673;52.276;10.560;2023-03-01T07:57:21;11.48;;;5.25;;
75990;SDS011;64673;52.276;10.560;2023-03-01T07:59:46;11.43;;;4.57;;
75990;SDS011;64673;52.276;10.560;2023-03-01T08:02:11;12.10;;;4.70;;
75990;SDS011;64673;52.276;10.560;2023-03-01T08:04:37;11.57;;;4.32;;
75990;SDS011;64673;52.276;10.560;2023-03-01T08:07:04;9.35;;;5.18;;
75990;SDS011;64673;52.276;10.560;2023-03-01T08:09:30;10.38;;;5.05;;
75990;SDS011;64673;52.276;10.560;2023-03-01T08:11:56;11.40;;;4.75;;
75990;SDS011;64673;52.276;10.560;2023-03-01T08:14:24;11.70;;;4.50;;
75990;SDS011;64673;52.276;10.560;2023-03-01T08:16:50;9.30;;;5.00;;
75990;SDS011;64673;52.276;10.560;2023-03-01T08:19:15;9.02;;;5.13;;
75990;SDS011;64673;52.276;10.560;2023-03-01T08:21:40;10.95;;;4.90;;
75990;SDS011;64673;52.276;10.560;2023-03-01T08:24:06;9.07;;;4.23;;
75990;SDS011;64673;52.276;10.560;2023-03-01T08:26:33;8.52;;;3.78;;
75990;SDS011;64673;52.276;10.560;2023-03-01T08:28:59;6.13;;;3.47;;
75990;SDS011;64673;52.276;10.560;2023-03-01T08:31:26;7.63;;;3.63;;
75990;SDS011;64673;52.276;10.560;2023-03-01T08:33:57;11.43;;;3.95;;
75990;SDS011;64673;52.276;10.560;2023-03-01T08:36:25;8.32;;;3.53;;
75990;SDS011;64673;52.276;10.560;2023-03-01T08:41:18;7.70;;;3.65;;
75990;SDS011;64673;52.276;10.560;2023-03-01T08:43:44;7.78;;;4.07;;
75990;SDS011;64673;52.276;10.560;2023-03-01T08:46:10;10.70;;;3.67;;
75990;SDS011;64673;52.276;10.560;2023-03-01T08:48:36;6.90;;;3.72;;
75990;SDS011;64673;52.276;10.560;2023-03-01T08:51:11;9.50;;;3.78;;
75990;SDS011;64673;52.276;10.560;2023-03-01T08:53:37;10.00;;;3.97;;
75990;SDS011;64673;52.276;10.560;2023-03-01T08:56:03;8.48;;;3.70;;
75990;SDS011;64673;52.276;10.560;2023-03-01T08:58:28;8.43;;;3.15;;
75990;SDS011;64673;52.276;10.560;2023-03-01T09:00:54;6.90;;;3.30;;
75990;SDS011;64673;52.276;10.560;2023-03-01T09:03:21;8.07;;;3.20;;
75990;SDS011;64673;52.276;10.560;2023-03-01T09:05:47;7.65;;;2.75;;
75990;SDS011;64673;52.276;10.560;2023-03-01T09:08:14;10.23;;;3.30;;
75990;SDS011;64673;52.276;10.560;2023-03-01T09:10:39;7.45;;;3.00;;
75990;SDS011;64673;52.276;10.560;2023-03-01T09:13:05;5.93;;;2.95;;
75990;SDS011;64673;52.276;10.560;2023-03-01T09:15:30;5.68;;;2.63;;
75990;SDS011;64673;52.276;10.560;2023-03-01T09:17:55;6.50;;;2.88;;
75990;SDS011;64673;52.276;10.560;2023-03-01T09:20:20;6.45;;;2.72;;
75990;SDS011;64673;52.276;10.560;2023-03-01T09:22:46;6.75;;;3.13;;
75990;SDS011;64673;52.276;10.560;2023-03-01T09:25:11;9.27;;;3.00;;
75990;SDS011;64673;52.276;10.560;2023-03-01T09:27:37;5.05;;;2.75;;
75990;SDS011;64673;52.276;10.560;2023-03-01T09:30:02;7.35;;;3.03;;
75990;SDS011;64673;52.276;10.560;2023-03-01T09:32:30;7.10;;;3.00;;
75990;SDS011;64673;52.276;10.560;2023-03-01T09:34:56;6.38;;;2.47;;
75990;SDS011;64673;52.276;10.560;2023-03-01T09:37:31;7.82;;;2.60;;
75990;SDS011;64673;52.276;10.560;2023-03-01T09:39:57;6.10;;;3.00;;
75990;SDS011;64673;52.276;10.560;2023-03-01T09:42:23;7.43;;;2.85;;
75990;SDS011;64673;52.276;10.560;2023-03-01T09:45:03;6.45;;;2.70;;
75990;SDS011;64673;52.276;10.560;2023-03-01T09:47:33;6.85;;;2.53;;
75990;SDS011;64673;52.276;10.560;2023-03-01T09:50:08;5.35;;;2.45;;
75990;SDS011;64673;52.276;10.560;2023-03-01T09:52:44;7.05;;;2.28;;
75990;SDS011;64673;52.276;10.560;2023-03-01T09:55:17;5.47;;;2.67;;
75990;SDS011;64673;52.276;10.560;2023-03-01T10:01:10;5.22;;;2.50;;
75990;SDS011;64673;52.276;10.560;2023-03-01T10:06:52;6.68;;;2.55;;
75990;SDS011;64673;52.276;10.560;2023-03-01T10:09:43;5.60;;;2.53;;
75990;SDS011;64673;52.276;10.560;2023-03-01T10:12:11;7.95;;;2.90;;
75990;SDS011;64673;52.276;10.560;2023-03-01T10:14:43;6.70;;;2.67;;
75990;SDS011;64673;52.276;10.560;2023-03-01T10:17:33;5.68;;;2.40;;
75990;SDS011;64673;52.276;10.560;2023-03-01T10:20:23;8.10;;;2.50;;
75990;SDS011;64673;52.276;10.560;2023-03-01T10:22:58;6.85;;;2.35;;
75990;SDS011;64673;52.276;10.560;2023-03-01T10:28:20;6.30;;;2.60;;
75990;SDS011;64673;52.276;10.560;2023-03-01T10:31:11;5.78;;;2.17;;
75990;SDS011;64673;52.276;10.560;2023-03-01T10:33:39;5.00;;;2.50;;
75990;SDS011;64673;52.276;10.560;2023-03-01T10:36:07;7.97;;;2.47;;
75990;SDS011;64673;52.276;10.560;2023-03-01T10:38:46;6.47;;;2.85;;
75990;SDS011;64673;52.276;10.560;2023-03-01T10:41:21;6.78;;;2.13;;
75990;SDS011;64673;52.276;10.560;2023-03-01T10:43:52;3.63;;;1.77;;
75990;SDS011;64673;52.276;10.560;2023-03-01T10:46:35;5.63;;;2.10;;
75990;SDS011;64673;52.276;10.560;2023-03-01T10:51:46;4.90;;;2.08;;
75990;SDS011;64673;52.276;10.560;2023-03-01T10:54:26;5.53;;;2.05;;
75990;SDS011;64673;52.276;10.560;2023-03-01T10:56:55;4.32;;;2.08;;
75990;SDS011;64673;52.276;10.560;2023-03-01T10:59:25;5.03;;;2.17;;
75990;SDS011;64673;52.276;10.560;2023-03-01T11:07:27;5.38;;;2.58;;
75990;SDS011;64673;52.276;10.560;2023-03-01T11:09:53;5.05;;;2.10;;
75990;SDS011;64673;52.276;10.560;2023-03-01T11:12:20;6.50;;;2.20;;
75990;SDS011;64673;52.276;10.560;2023-03-01T11:14:55;5.63;;;2.45;;
75990;SDS011;64673;52.276;10.560;2023-03-01T11:17:25;4.90;;;1.85;;
75990;SDS011;64673;52.276;10.560;2023-03-01T11:25:26;4.95;;;2.25;;
75990;SDS011;64673;52.276;10.560;2023-03-01T11:27:55;7.00;;;2.15;;
75990;SDS011;64673;52.276;10.560;2023-03-01T11:38:51;3.33;;;1.80;;
75990;SDS011;64673;52.276;10.560;2023-03-01T11:41:31;3.33;;;1.48;;
75990;SDS011;64673;52.276;10.560;2023-03-01T11:44:02;4.22;;;1.88;;
75990;SDS011;64673;52.276;10.560;2023-03-01T11:54:04;4.90;;;2.00;;
75990;SDS011;64673;52.276;10.560;2023-03-01T11:56:38;5.88;;;2.20;;
75990;SDS011;64673;52.276;10.560;2023-03-01T11:59:16;6.13;;;2.53;;
75990;SDS011;64673;52.276;10.560;2023-03-01T12:04:24;4.88;;;2.20;;
75990;SDS011;64673;52.276;10.560;2023-03-01T12:10:00;4.50;;;2.22;;
75990;SDS011;64673;52.276;10.560;2023-03-01T12:37:24;4.35;;;1.65;;
75990;SDS011;64673;52.276;10.560;2023-03-01T12:42:53;4.68;;;2.10;;
75990;SDS011;64673;52.276;10.560;2023-03-01T12:51:07;4.45;;;1.73;;
75990;SDS011;64673;52.276;10.560;2023-03-01T12:53:40;4.35;;;2.00;;
75990;SDS011;64673;52.276;10.560;2023-03-01T12:56:10;5.18;;;1.83;;
75990;SDS011;64673;52.276;10.560;2023-03-01T13:01:39;5.40;;;2.40;;
75990;SDS011;64673;52.276;10.560;2023-03-01T13:04:16;4.70;;;2.20;;
75990;SDS011;64673;52.276;10.560;2023-03-01T13:09:59;5.68;;;2.10;;
75990;SDS011;64673;52.276;10.560;2023-03-01T13:17:47;4.15;;;1.90;;
75990;SDS011;64673;52.276;10.560;2023-03-01T13:20:17;5.78;;;2.63;;
75990;SDS011;64673;52.276;10.560;2023-03-01T13:22:45;5.22;;;2.35;;
75990;SDS011;64673;52.276;10.560;2023-03-01T13:25:12;8.43;;;2.45;;
75990;SDS011;64673;52.276;10.560;2023-03-01T13:44:13;4.20;;;2.08;;
75990;SDS011;64673;52.276;10.560;2023-03-01T13:46:44;4.88;;;2.10;;
75990;SDS011;64673;52.276;10.560;2023-03-01T13:49:11;7.35;;;2.15;;
75990;SDS011;64673;52.276;10.560;2023-03-01T13:51:41;5.43;;;2.40;;
75990;SDS011;64673;52.276;10.560;2023-03-01T13:54:11;5.10;;;2.17;;
75990;SDS011;64673;52.276;10.560;2023-03-01T13:56:40;4.30;;;2.20;;
75990;SDS011;64673;52.276;10.560;2023-03-01T13:59:06;5.45;;;2.13;;
75990;SDS011;64673;52.276;10.560;2023-03-01T14:01:39;4.47;;;1.95;;
75990;SDS011;64673;52.276;10.560;2023-03-01T14:04:21;5.00;;;2.28;;
75990;SDS011;64673;52.276;10.560;2023-03-01T14:06:49;3.20;;;1.65;;
75990;SDS011;64673;52.276;10.560;2023-03-01T14:17:51;4.63;;;1.90;;
75990;SDS011;64673;52.276;10.560;2023-03-01T14:20:33;5.82;;;2.20;;
75990;SDS011;64673;52.276;10.560;2023-03-01T14:23:09;7.30;;;2.17;;
75990;SDS011;64673;52.276;10.560;2023-03-01T14:25:37;4.75;;;2.05;;
75990;SDS011;64673;52.276;10.560;2023-03-01T14:30:33;3.35;;;1.63;;
75990;SDS011;64673;52.276;10.560;2023-03-01T14:33:04;3.90;;;1.75;;
75990;SDS011;64673;52.276;10.560;2023-03-01T14:35:33;4.43;;;1.48;;
75990;SDS011;64673;52.276;10.560;2023-03-01T14:37:59;5.65;;;1.70;;
75990;SDS011;64673;52.276;10.560;2023-03-01T14:40:27;4.18;;;2.42;;
75990;SDS011;64673;52.276;10.560;2023-03-01T14:43:01;3.20;;;2.00;;
75990;SDS011;64673;52.276;10.560;2023-03-01T14:45:33;5.75;;;1.90;;
75990;SDS011;64673;52.276;10.560;2023-03-01T14:47:59;4.00;;;1.50;;
75990;SDS011;64673;52.276;10.560;2023-03-01T14:50:28;3.08;;;1.60;;
75990;SDS011;64673;52.276;10.560;2023-03-01T14:52:55;4.70;;;1.60;;
75990;SDS011;64673;52.276;10.560;2023-03-01T14:55:31;4.10;;;1.85;;
75990;SDS011;64673;52.276;10.560;2023-03-01T14:57:59;3.63;;;1.40;;
75990;SDS011;64673;52.276;10.560;2023-03-01T15:00:30;2.42;;;1.30;;
75990;SDS011;64673;52.276;10.560;2023-03-01T15:02:58;3.80;;;1.40;;
75990;SDS011;64673;52.276;10.560;2023-03-01T15:05:34;3.97;;;1.50;;
75990;SDS011;64673;52.276;10.560;2023-03-01T15:08:01;3.53;;;1.52;;
75990;SDS011;64673;52.276;10.560;2023-03-01T15:10:29;3.58;;;1.33;;
75990;SDS011;64673;52.276;10.560;2023-03-01T15:13:09;3.53;;;1.50;;
75990;SDS011;64673;52.276;10.560;2023-03-01T15:15:41;4.57;;;1.48;;
75990;SDS011;64673;52.276;10.560;2023-03-01T15:18:18;2.38;;;1.27;;
75990;SDS011;64673;52.276;10.560;2023-03-01T15:20:47;3.30;;;1.60;;
75990;SDS011;64673;52.276;10.560;2023-03-01T15:23:26;4.45;;;1.77;;
75990;SDS011;64673;52.276;10.560;2023-03-01T15:25:53;3.50;;;1.40;;
75990;SDS011;64673;52.276;10.560;2023-03-01T15:28:26;2.15;;;1.42;;
75990;SDS011;64673;52.276;10.560;2023-03-01T15:30:55;2.25;;;1.27;;
75990;SDS011;64673;52.276;10.560;2023-03-01T15:33:34;3.28;;;1.20;;
75990;SDS011;64673;52.276;10.560;2023-03-01T15:36:02;3.20;;;1.30;;
75990;SDS011;64673;52.276;10.560;2023-03-01T15:38:52;4.55;;;1.52;;
75990;SDS011;64673;52.276;10.560;2023-03-01T15:41:29;3.80;;;1.52;;
75990;SDS011;64673;52.276;10.560;2023-03-01T15:44:00;2.70;;;1.40;;
75990;SDS011;64673;52.276;10.560;2023-03-01T15:46:39;5.75;;;1.20;;
75990;SDS011;64673;52.276;10.560;2023-03-01T15:49:19;2.85;;;1.17;;
75990;SDS011;64673;52.276;10.560;2023-03-01T15:52:12;3.03;;;1.42;;
75990;SDS011;64673;52.276;10.560;2023-03-01T15:54:45;4.13;;;1.35;;
75990;SDS011;64673;52.276;10.560;2023-03-01T15:57:14;3.53;;;1.20;;
75990;SDS011;64673;52.276;10.560;2023-03-01T15:59:39;2.47;;;1.13;;
75990;SDS011;64673;52.276;10.560;2023-03-01T16:02:12;2.88;;;1.23;;
75990;SDS011;64673;52.276;10.560;2023-03-01T16:04:37;4.30;;;1.42;;
75990;SDS011;64673;52.276;10.560;2023-03-01T16:07:03;2.72;;;1.20;;
75990;SDS011;64673;52.276;10.560;2023-03-01T16:09:28;3.90;;;1.17;;
75990;SDS011;64673;52.276;10.560;2023-03-01T16:11:53;4.47;;;1.58;;
75990;SDS011;64673;52.276;10.560;2023-03-01T16:14:19;2.45;;;1.23;;
75990;SDS011;64673;52.276;10.560;2023-03-01T16:16:45;4.55;;;1.50;;
75990;SDS011;64673;52.276;10.560;2023-03-01T16:19:12;3.08;;;1.80;;
75990;SDS011;64673;52.276;10.560;2023-03-01T16:21:38;3.33;;;1.30;;
75990;SDS011;64673;52.276;10.560;2023-03-01T16:24:04;4.72;;;1.30;;
75990;SDS011;64673;52.276;10.560;2023-03-01T16:26:29;3.13;;;1.42;;
75990;SDS011;64673;52.276;10.560;2023-03-01T16:28:55;4.60;;;1.60;;
75990;SDS011;64673;52.276;10.560;2023-03-01T16:31:22;4.63;;;1.50;;
75990;SDS011;64673;52.276;10.560;2023-03-01T16:33:49;6.18;;;1.77;;
75990;SDS011;64673;52.276;10.560;2023-03-01T16:36:16;3.88;;;1.70;;
75990;SDS011;64673;52.276;10.560;2023-03-01T16:38:43;3.50;;;1.25;;
75990;SDS011;64673;52.276;10.560;2023-03-01T16:41:11;3.25;;;1.40;;
75990;SDS011;64673;52.276;10.560;2023-03-01T16:43:38;2.70;;;1.15;;
75990;SDS011;64673;52.276;10.560;2023-03-01T16:46:25;2.58;;;1.48;;
75990;SDS011;64673;52.276;10.560;2023-03-01T16:48:53;3.00;;;1.25;;